Status Flugplatz

Der Flugplatz ist offen
PPR Regelung ! PJE !!!

123.15 MHz
RWY 05/23

flüger beizli - Öffnungszeiten
Freitag ab 16:00
Samstag +Sonntag ab 11:00
Bei schönem Wetter öffnen wir früher! Tel.: 079 234 07 74

Warteliste für Hangarplatz LSZP

Stand November 2016

Vorbehalt 1 Platz für FGS
Immer der letzte, der einen Platz erhalten hat, muss diesen räumen falls die FGS ihren Platz beansprucht.

1. Roland Modler  -  Auster 5 / HB-EOP
2. Hansueli Scheurer  -  Piper Archer
3. Tobias Reichert  -  Hochdecker ähnlich Kitfox
4. Christoph Schnider  -  Flugzeug offen
5. Hennes Hochstrasser  -  Morane Ralley
6. Louis Stieger  -  ICP Savannah S
7. Martin Feist  -  Rockwell  Commander 112 TC
8. Erik Gijsbers  -  Sportcruiser PS28
9. Stephen Tucker  -  Rans S-6S
10.Heinz Loosli  -  Diamond DA 40NG
11.Simon Vogelsanger  -  Colibri MB2
12.Robert Kopp  -  Piper PA28-236
13.Schwarzentruber Willy  -  Piper PA28

Anfragen sind schriftlich an den Vorstand der Flugplatzgenossenschaft zu richten.

Email Anfragen können nicht berücksichtigt werden.

Wetter Kappelen

 


 

[source: ADDS]
METAR
LSZG 201750Z AUTO 07002KT CAVOK 12/06 Q1021 =
TAF
TAF LSZG 201425Z 2015/2024 08004KT 9999 FEW060 BECMG 2015/2018 CAVOK BECMG 2022/2024 6000 MIFG NSC =
SR / SS: 05:16 / 17:33 UTC ( 2017-09-20)

 


 

Flugplatz Biel-Kappelen LSZP - 123.15MHz - 032 384 46 84

Email: Diese E-Mail-Adresse ist vor Spambots geschützt! Zur Anzeige muss JavaScript eingeschaltet sein!
www.lszp.ch
2017 © by mb

Zum Anfang